Saint Augustine, FL

11:13 AM EDT on August 30, 2016 (GMT -0400)
Saint Augustine | | Change Station
Active Advisory: Coastal Hazard Statement

Elev 10 ft 29.96 °N, 81.34 °W | Updated 3 minutes ago

Mostly Cloudy
Mostly Cloudy
79 °F
Feels Like 79 °F
N
14
Wind Variable Wind from SSE
Gusts 23 mph

Today
High -- | Low -- °F
--% Chance of Precip.
Yesterday
High -- | Low -- °F
Precip. -- in
Pressure 30.00 in
Visibility 7.0 miles
Clouds Mostly Cloudy 1600 ft
Dew Point 73 °F
Humidity 83%
Rainfall 0.00 in
Snow Depth Not available.
7:01 AM 7:49 PM
Waning Crescent, 3% visible
SPECI KSGJ 301510Z 16012G20KT 7SM BKN016 26/23 A3000 RMK AO2 WSHFT 1453
Pressure 30.00 in
Visibility 7.0 miles
Clouds Mostly Cloudy 1600 ft
Dew Point 73 °F
Humidity 83%
Rainfall 0.00 in
Snow Depth Not available.
7:01 AM 7:49 PM
Waning Crescent, 3% visible
SPECI KSGJ 301510Z 16012G20KT 7SM BKN016 26/23 A3000 RMK AO2 WSHFT 1453

10-Day Weather Forecast

Almanac

Astronomy

Aug. 30, 2016 Rise Set
Actual Time
Civil Twilight
Nautical Twilight
Astronomical Twilight
Moon
Length of Visible Light
Length of Day
Tomorrow will be .
, % of the Moon is Illuminated

Today's Extremes

State Highs State Lows

Community

WunderPhotos

Upload Photos

1,935,855 photos uploaded!

WunderBlog® & News

Nearby

Air Quality

  Air Quality AQ Index Pollutant
Not available.

Snow Depth

Station Depth Elevation

Earthquake Activity

City Distance Mag. Time & Date
Minimum magnitude displayed is 2.5.

Coastal Water Temperatures

Place Temperature

Stations

Nearby Weather Stations

Station Location Temp. Windchill Dew Point Humidity Wind Precip. Elev Updated Type
                   

Watches & Warnings

Coastal Hazard Statement
Issued: 2:15 AM EDT Aug. 30, 2016 – National Weather Service

... High rip current risk now in effect through this evening...

* timing... through 8 PM today.

* Impacts... rip currents will be life threatening. Rough surf with
breakers of 3 to 5 feet is also expected which can knock you
down. Longshore currents may be strong and push you into rip
currents.

Precautionary/preparedness actions...

There is a high risk of rip currents.

Rip currents will be life threatening.

Rip currents are powerful channels of water flowing quickly away
from shore... which occur most often at low spots or breaks in
The Sandbar and in the vicinity of structures such as groins...
jetties and piers. Heed the advice of lifeguards and the beach
patrol. Pay attention to flags and posted signs.

Swim near a lifeguard. If caught in a rip current remain calm.
Don't fight the current. Swim in a direction following the
shoreline. If unable to escape... face the shore and call or wave
for help. If tired... float or tread water until out of the rip
current.